Main page
METAR-TAF:

METAR-TAF

Airports :

Kadala Airport

Chita, Russia

latitude: 52-05N, longitude: 113-29E, elevation: 685 m

Current weather observation

The report was made 27 minutes ago, at 05:30 UTC
Wind 4 kt from the Southwest
Temperature -5°C
Humidity 42%
Pressure 1024 hPa
Visibility 10 km or more

METAR: UIAA 060530Z 23002MPS 9999 NSC M05/M16 Q1024 R29/390150 NOSIG RMK QFE709/0945

Time: 14:57 (05:57 UTC)

Forecast

The report was made 57 minutes ago, at 05:00 UTC
Forecast valid from 06 at 06 UTC to 07 at 06 UTC
Wind 10 kt from the Southwest with gusts up to 19 kt
Visibility 10 km or more

TAF: UIAA 060500Z 0606/0706 23005G10MPS 9999 NSC

Weather observations and forecasts of more than 4000 airports (METAR and TAF reports).

The available stations are represented by yellow and red dots on the map.

Hover mouse over dot to see the name of the station.

Then click to see weather observations and forecasts.

To change the map : click on the green buttons with a black cross to zoom in, on the green button with a dash to zoom out, or on the green arrows for adjacent maps.


METAR-TAF: